sensor_id;sensor_type;location;lat;lon;timestamp;P1;durP1;ratioP1;P2;durP2;ratioP2
4837;SDS011;2433;48.768;9.154;2023-04-24T00:00:07;0.53;;;0.50;;
4837;SDS011;2433;48.768;9.154;2023-04-24T00:02:38;0.60;;;0.50;;
4837;SDS011;2433;48.768;9.154;2023-04-24T00:05:04;0.87;;;0.60;;
4837;SDS011;2433;48.768;9.154;2023-04-24T00:07:30;2.00;;;0.67;;
4837;SDS011;2433;48.768;9.154;2023-04-24T00:09:56;0.50;;;0.43;;
4837;SDS011;2433;48.768;9.154;2023-04-24T00:12:22;0.73;;;0.60;;
4837;SDS011;2433;48.768;9.154;2023-04-24T00:14:48;1.63;;;1.33;;
4837;SDS011;2433;48.768;9.154;2023-04-24T00:17:13;1.23;;;0.60;;
4837;SDS011;2433;48.768;9.154;2023-04-24T00:19:39;0.90;;;0.50;;
4837;SDS011;2433;48.768;9.154;2023-04-24T00:22:05;2.03;;;0.50;;
4837;SDS011;2433;48.768;9.154;2023-04-24T00:24:30;1.63;;;0.70;;
4837;SDS011;2433;48.768;9.154;2023-04-24T00:26:56;1.00;;;0.70;;
4837;SDS011;2433;48.768;9.154;2023-04-24T00:29:22;1.13;;;0.50;;
4837;SDS011;2433;48.768;9.154;2023-04-24T00:31:47;0.60;;;0.60;;
4837;SDS011;2433;48.768;9.154;2023-04-24T00:34:13;1.43;;;0.70;;
4837;SDS011;2433;48.768;9.154;2023-04-24T00:36:38;3.90;;;0.73;;
4837;SDS011;2433;48.768;9.154;2023-04-24T00:39:04;1.30;;;0.80;;
4837;SDS011;2433;48.768;9.154;2023-04-24T00:41:30;0.60;;;0.50;;
4837;SDS011;2433;48.768;9.154;2023-04-24T00:43:56;2.07;;;0.80;;
4837;SDS011;2433;48.768;9.154;2023-04-24T00:46:22;1.07;;;0.50;;
4837;SDS011;2433;48.768;9.154;2023-04-24T00:48:47;1.53;;;0.50;;
4837;SDS011;2433;48.768;9.154;2023-04-24T00:51:13;0.60;;;0.40;;
4837;SDS011;2433;48.768;9.154;2023-04-24T00:53:39;0.80;;;0.40;;
4837;SDS011;2433;48.768;9.154;2023-04-24T00:56:04;0.50;;;0.50;;
4837;SDS011;2433;48.768;9.154;2023-04-24T00:58:30;1.70;;;0.57;;
4837;SDS011;2433;48.768;9.154;2023-04-24T01:00:56;0.73;;;0.57;;
4837;SDS011;2433;48.768;9.154;2023-04-24T01:03:26;0.60;;;0.50;;
4837;SDS011;2433;48.768;9.154;2023-04-24T01:05:55;0.60;;;0.50;;
4837;SDS011;2433;48.768;9.154;2023-04-24T01:08:22;1.00;;;0.90;;
4837;SDS011;2433;48.768;9.154;2023-04-24T01:10:50;0.60;;;0.60;;
4837;SDS011;2433;48.768;9.154;2023-04-24T01:13:18;1.60;;;0.50;;
4837;SDS011;2433;48.768;9.154;2023-04-24T01:15:45;1.47;;;0.87;;
4837;SDS011;2433;48.768;9.154;2023-04-24T01:18:11;1.90;;;0.60;;
4837;SDS011;2433;48.768;9.154;2023-04-24T01:20:37;1.77;;;0.67;;
4837;SDS011;2433;48.768;9.154;2023-04-24T01:23:05;0.67;;;0.67;;
4837;SDS011;2433;48.768;9.154;2023-04-24T01:25:31;0.60;;;0.60;;
4837;SDS011;2433;48.768;9.154;2023-04-24T01:27:57;1.10;;;0.60;;
4837;SDS011;2433;48.768;9.154;2023-04-24T01:30:23;0.50;;;0.50;;
4837;SDS011;2433;48.768;9.154;2023-04-24T01:32:49;0.93;;;0.60;;
4837;SDS011;2433;48.768;9.154;2023-04-24T01:35:15;0.80;;;0.80;;
4837;SDS011;2433;48.768;9.154;2023-04-24T01:37:40;0.93;;;0.80;;
4837;SDS011;2433;48.768;9.154;2023-04-24T01:40:06;1.30;;;0.60;;
4837;SDS011;2433;48.768;9.154;2023-04-24T01:42:32;2.30;;;0.70;;
4837;SDS011;2433;48.768;9.154;2023-04-24T01:45:01;0.80;;;0.50;;
4837;SDS011;2433;48.768;9.154;2023-04-24T01:47:29;0.60;;;0.53;;
4837;SDS011;2433;48.768;9.154;2023-04-24T01:49:56;1.43;;;0.90;;
4837;SDS011;2433;48.768;9.154;2023-04-24T01:52:22;0.80;;;0.63;;
4837;SDS011;2433;48.768;9.154;2023-04-24T01:54:48;0.70;;;0.40;;
4837;SDS011;2433;48.768;9.154;2023-04-24T01:57:14;1.37;;;0.70;;
4837;SDS011;2433;48.768;9.154;2023-04-24T01:59:40;1.10;;;0.80;;
4837;SDS011;2433;48.768;9.154;2023-04-24T02:02:06;1.20;;;0.57;;
4837;SDS011;2433;48.768;9.154;2023-04-24T02:04:32;3.90;;;1.10;;
4837;SDS011;2433;48.768;9.154;2023-04-24T02:06:58;1.13;;;0.50;;
4837;SDS011;2433;48.768;9.154;2023-04-24T02:09:24;1.43;;;0.60;;
4837;SDS011;2433;48.768;9.154;2023-04-24T02:11:50;1.63;;;0.80;;
4837;SDS011;2433;48.768;9.154;2023-04-24T02:14:17;0.63;;;0.53;;
4837;SDS011;2433;48.768;9.154;2023-04-24T02:16:42;2.20;;;0.70;;
4837;SDS011;2433;48.768;9.154;2023-04-24T02:19:09;1.37;;;0.87;;
4837;SDS011;2433;48.768;9.154;2023-04-24T02:21:35;0.90;;;0.67;;
4837;SDS011;2433;48.768;9.154;2023-04-24T02:24:01;1.93;;;0.80;;
4837;SDS011;2433;48.768;9.154;2023-04-24T02:26:26;2.37;;;0.60;;
4837;SDS011;2433;48.768;9.154;2023-04-24T02:28:52;1.03;;;0.40;;
4837;SDS011;2433;48.768;9.154;2023-04-24T02:31:19;0.70;;;0.57;;
4837;SDS011;2433;48.768;9.154;2023-04-24T02:33:47;3.70;;;0.70;;
4837;SDS011;2433;48.768;9.154;2023-04-24T02:36:13;0.53;;;0.50;;
4837;SDS011;2433;48.768;9.154;2023-04-24T02:38:39;0.73;;;0.60;;
4837;SDS011;2433;48.768;9.154;2023-04-24T02:41:05;3.27;;;0.80;;
4837;SDS011;2433;48.768;9.154;2023-04-24T02:43:31;0.70;;;0.40;;
4837;SDS011;2433;48.768;9.154;2023-04-24T02:45:58;2.03;;;0.67;;
4837;SDS011;2433;48.768;9.154;2023-04-24T02:48:23;2.83;;;0.73;;
4837;SDS011;2433;48.768;9.154;2023-04-24T02:50:50;1.23;;;0.70;;
4837;SDS011;2433;48.768;9.154;2023-04-24T02:53:16;2.67;;;0.73;;
4837;SDS011;2433;48.768;9.154;2023-04-24T02:55:42;1.13;;;0.57;;
4837;SDS011;2433;48.768;9.154;2023-04-24T02:58:08;0.83;;;0.50;;
4837;SDS011;2433;48.768;9.154;2023-04-24T03:00:36;0.60;;;0.60;;
4837;SDS011;2433;48.768;9.154;2023-04-24T03:03:01;0.87;;;0.60;;
4837;SDS011;2433;48.768;9.154;2023-04-24T03:05:27;2.90;;;0.70;;
4837;SDS011;2433;48.768;9.154;2023-04-24T03:07:53;1.97;;;0.77;;
4837;SDS011;2433;48.768;9.154;2023-04-24T03:10:20;0.80;;;0.70;;
4837;SDS011;2433;48.768;9.154;2023-04-24T03:12:50;0.73;;;0.53;;
4837;SDS011;2433;48.768;9.154;2023-04-24T03:15:17;0.70;;;0.60;;
4837;SDS011;2433;48.768;9.154;2023-04-24T03:17:43;1.10;;;0.80;;
4837;SDS011;2433;48.768;9.154;2023-04-24T03:20:09;1.07;;;0.60;;
4837;SDS011;2433;48.768;9.154;2023-04-24T03:22:35;1.13;;;0.67;;
4837;SDS011;2433;48.768;9.154;2023-04-24T03:25:04;1.57;;;0.80;;
4837;SDS011;2433;48.768;9.154;2023-04-24T03:27:30;0.90;;;0.80;;
4837;SDS011;2433;48.768;9.154;2023-04-24T03:30:01;0.90;;;0.90;;
4837;SDS011;2433;48.768;9.154;2023-04-24T03:32:38;1.00;;;0.80;;
4837;SDS011;2433;48.768;9.154;2023-04-24T03:35:08;1.47;;;0.90;;
4837;SDS011;2433;48.768;9.154;2023-04-24T03:37:34;1.50;;;1.07;;
4837;SDS011;2433;48.768;9.154;2023-04-24T03:40:23;1.77;;;0.70;;
4837;SDS011;2433;48.768;9.154;2023-04-24T03:42:49;0.80;;;0.80;;
4837;SDS011;2433;48.768;9.154;2023-04-24T03:45:15;0.73;;;0.70;;
4837;SDS011;2433;48.768;9.154;2023-04-24T03:47:45;2.00;;;1.40;;
4837;SDS011;2433;48.768;9.154;2023-04-24T03:50:11;1.27;;;0.50;;
4837;SDS011;2433;48.768;9.154;2023-04-24T03:52:36;1.50;;;0.70;;
4837;SDS011;2433;48.768;9.154;2023-04-24T03:55:03;0.80;;;0.80;;
4837;SDS011;2433;48.768;9.154;2023-04-24T03:57:33;1.10;;;0.60;;
4837;SDS011;2433;48.768;9.154;2023-04-24T04:00:12;0.87;;;0.70;;
4837;SDS011;2433;48.768;9.154;2023-04-24T04:02:43;1.90;;;0.80;;
4837;SDS011;2433;48.768;9.154;2023-04-24T04:05:09;2.17;;;0.70;;
4837;SDS011;2433;48.768;9.154;2023-04-24T04:07:34;0.73;;;0.73;;
4837;SDS011;2433;48.768;9.154;2023-04-24T04:10:00;0.80;;;0.60;;
4837;SDS011;2433;48.768;9.154;2023-04-24T04:12:25;0.80;;;0.67;;
4837;SDS011;2433;48.768;9.154;2023-04-24T04:14:52;1.10;;;0.70;;
4837;SDS011;2433;48.768;9.154;2023-04-24T04:17:18;0.60;;;0.40;;
4837;SDS011;2433;48.768;9.154;2023-04-24T04:19:43;1.47;;;1.17;;
4837;SDS011;2433;48.768;9.154;2023-04-24T04:22:09;0.70;;;0.50;;
4837;SDS011;2433;48.768;9.154;2023-04-24T04:24:41;1.70;;;0.70;;
4837;SDS011;2433;48.768;9.154;2023-04-24T04:27:09;0.60;;;0.50;;
4837;SDS011;2433;48.768;9.154;2023-04-24T04:29:44;1.13;;;0.57;;
4837;SDS011;2433;48.768;9.154;2023-04-24T04:32:11;1.40;;;0.60;;
4837;SDS011;2433;48.768;9.154;2023-04-24T04:34:38;3.43;;;1.00;;
4837;SDS011;2433;48.768;9.154;2023-04-24T04:37:06;1.33;;;0.77;;
4837;SDS011;2433;48.768;9.154;2023-04-24T04:39:41;2.23;;;1.20;;
4837;SDS011;2433;48.768;9.154;2023-04-24T04:42:12;4.40;;;1.20;;
4837;SDS011;2433;48.768;9.154;2023-04-24T04:44:40;1.40;;;0.90;;
4837;SDS011;2433;48.768;9.154;2023-04-24T04:47:08;3.37;;;0.80;;
4837;SDS011;2433;48.768;9.154;2023-04-24T04:49:37;0.80;;;0.70;;
4837;SDS011;2433;48.768;9.154;2023-04-24T04:52:06;0.90;;;0.80;;
4837;SDS011;2433;48.768;9.154;2023-04-24T04:54:32;0.60;;;0.60;;
4837;SDS011;2433;48.768;9.154;2023-04-24T04:56:58;1.13;;;0.90;;
4837;SDS011;2433;48.768;9.154;2023-04-24T04:59:24;1.80;;;0.93;;
4837;SDS011;2433;48.768;9.154;2023-04-24T05:01:55;1.20;;;0.77;;
4837;SDS011;2433;48.768;9.154;2023-04-24T05:04:21;1.63;;;1.03;;
4837;SDS011;2433;48.768;9.154;2023-04-24T05:06:47;1.17;;;1.00;;
4837;SDS011;2433;48.768;9.154;2023-04-24T05:09:13;0.77;;;0.77;;
4837;SDS011;2433;48.768;9.154;2023-04-24T05:11:45;1.00;;;0.90;;
4837;SDS011;2433;48.768;9.154;2023-04-24T05:14:11;1.03;;;0.93;;
4837;SDS011;2433;48.768;9.154;2023-04-24T05:16:39;1.20;;;1.10;;
4837;SDS011;2433;48.768;9.154;2023-04-24T05:19:06;1.23;;;1.00;;
4837;SDS011;2433;48.768;9.154;2023-04-24T05:21:35;1.00;;;0.73;;
4837;SDS011;2433;48.768;9.154;2023-04-24T05:24:01;1.40;;;1.30;;
4837;SDS011;2433;48.768;9.154;2023-04-24T05:26:42;2.20;;;1.53;;
4837;SDS011;2433;48.768;9.154;2023-04-24T05:29:09;1.43;;;1.27;;
4837;SDS011;2433;48.768;9.154;2023-04-24T05:31:35;1.33;;;1.13;;
4837;SDS011;2433;48.768;9.154;2023-04-24T05:34:00;1.50;;;0.90;;
4837;SDS011;2433;48.768;9.154;2023-04-24T05:36:26;1.43;;;1.33;;
4837;SDS011;2433;48.768;9.154;2023-04-24T05:38:52;1.43;;;1.33;;
4837;SDS011;2433;48.768;9.154;2023-04-24T05:41:18;1.80;;;1.20;;
4837;SDS011;2433;48.768;9.154;2023-04-24T05:43:43;1.30;;;1.20;;
4837;SDS011;2433;48.768;9.154;2023-04-24T05:46:09;1.73;;;1.00;;
4837;SDS011;2433;48.768;9.154;2023-04-24T05:48:34;1.17;;;1.10;;
4837;SDS011;2433;48.768;9.154;2023-04-24T05:51:02;1.90;;;1.10;;
4837;SDS011;2433;48.768;9.154;2023-04-24T05:53:28;2.97;;;2.00;;
4837;SDS011;2433;48.768;9.154;2023-04-24T05:55:53;1.27;;;1.10;;
4837;SDS011;2433;48.768;9.154;2023-04-24T05:58:19;1.53;;;1.40;;
4837;SDS011;2433;48.768;9.154;2023-04-24T06:00:46;1.60;;;1.20;;
4837;SDS011;2433;48.768;9.154;2023-04-24T06:03:12;1.17;;;1.00;;
4837;SDS011;2433;48.768;9.154;2023-04-24T06:05:38;1.10;;;0.77;;
4837;SDS011;2433;48.768;9.154;2023-04-24T06:08:03;1.10;;;1.00;;
4837;SDS011;2433;48.768;9.154;2023-04-24T06:10:35;1.20;;;1.00;;
4837;SDS011;2433;48.768;9.154;2023-04-24T06:13:01;2.17;;;1.10;;
4837;SDS011;2433;48.768;9.154;2023-04-24T06:15:29;1.63;;;1.13;;
4837;SDS011;2433;48.768;9.154;2023-04-24T06:17:58;1.40;;;1.30;;
4837;SDS011;2433;48.768;9.154;2023-04-24T06:20:25;1.40;;;1.30;;
4837;SDS011;2433;48.768;9.154;2023-04-24T06:22:52;1.20;;;1.10;;
4837;SDS011;2433;48.768;9.154;2023-04-24T06:25:17;1.80;;;1.10;;
4837;SDS011;2433;48.768;9.154;2023-04-24T06:27:44;3.00;;;1.50;;
4837;SDS011;2433;48.768;9.154;2023-04-24T06:30:09;2.10;;;1.43;;
4837;SDS011;2433;48.768;9.154;2023-04-24T06:32:36;1.73;;;1.27;;
4837;SDS011;2433;48.768;9.154;2023-04-24T06:35:01;1.77;;;1.30;;
4837;SDS011;2433;48.768;9.154;2023-04-24T06:37:27;2.10;;;1.40;;
4837;SDS011;2433;48.768;9.154;2023-04-24T06:39:52;1.17;;;1.00;;
4837;SDS011;2433;48.768;9.154;2023-04-24T06:42:18;2.60;;;1.70;;
4837;SDS011;2433;48.768;9.154;2023-04-24T06:44:48;1.50;;;1.40;;
4837;SDS011;2433;48.768;9.154;2023-04-24T06:47:14;2.87;;;1.20;;
4837;SDS011;2433;48.768;9.154;2023-04-24T06:49:39;1.23;;;1.10;;
4837;SDS011;2433;48.768;9.154;2023-04-24T06:52:05;2.07;;;1.70;;
4837;SDS011;2433;48.768;9.154;2023-04-24T06:54:31;2.13;;;2.03;;
4837;SDS011;2433;48.768;9.154;2023-04-24T06:56:58;1.13;;;1.00;;
4837;SDS011;2433;48.768;9.154;2023-04-24T06:59:26;1.30;;;1.20;;
4837;SDS011;2433;48.768;9.154;2023-04-24T07:01:52;1.77;;;1.33;;
4837;SDS011;2433;48.768;9.154;2023-04-24T07:04:18;2.00;;;1.60;;
4837;SDS011;2433;48.768;9.154;2023-04-24T07:06:44;1.40;;;1.30;;
4837;SDS011;2433;48.768;9.154;2023-04-24T07:09:11;1.63;;;1.43;;
4837;SDS011;2433;48.768;9.154;2023-04-24T07:11:37;1.63;;;1.13;;
4837;SDS011;2433;48.768;9.154;2023-04-24T07:14:04;1.50;;;1.40;;
4837;SDS011;2433;48.768;9.154;2023-04-24T07:16:29;1.47;;;1.37;;
4837;SDS011;2433;48.768;9.154;2023-04-24T07:18:55;2.67;;;2.33;;
4837;SDS011;2433;48.768;9.154;2023-04-24T07:21:20;4.33;;;1.33;;
4837;SDS011;2433;48.768;9.154;2023-04-24T07:23:46;1.60;;;1.17;;
4837;SDS011;2433;48.768;9.154;2023-04-24T07:26:12;1.27;;;1.17;;
4837;SDS011;2433;48.768;9.154;2023-04-24T07:28:40;1.10;;;1.00;;
4837;SDS011;2433;48.768;9.154;2023-04-24T07:31:06;1.63;;;1.40;;
4837;SDS011;2433;48.768;9.154;2023-04-24T07:33:32;1.37;;;1.03;;
4837;SDS011;2433;48.768;9.154;2023-04-24T07:35:58;1.20;;;0.90;;
4837;SDS011;2433;48.768;9.154;2023-04-24T07:38:24;1.20;;;0.87;;
4837;SDS011;2433;48.768;9.154;2023-04-24T07:40:51;1.30;;;1.20;;
4837;SDS011;2433;48.768;9.154;2023-04-24T07:43:17;2.00;;;1.43;;
4837;SDS011;2433;48.768;9.154;2023-04-24T07:45:45;1.57;;;1.00;;
4837;SDS011;2433;48.768;9.154;2023-04-24T07:48:10;1.00;;;0.90;;
4837;SDS011;2433;48.768;9.154;2023-04-24T07:50:36;1.97;;;1.17;;
4837;SDS011;2433;48.768;9.154;2023-04-24T07:53:02;1.20;;;0.70;;
4837;SDS011;2433;48.768;9.154;2023-04-24T07:55:27;1.43;;;1.10;;
4837;SDS011;2433;48.768;9.154;2023-04-24T07:57:53;2.70;;;1.20;;
4837;SDS011;2433;48.768;9.154;2023-04-24T08:00:18;1.10;;;0.80;;
4837;SDS011;2433;48.768;9.154;2023-04-24T08:02:45;1.57;;;1.13;;
4837;SDS011;2433;48.768;9.154;2023-04-24T08:05:10;2.03;;;1.37;;
4837;SDS011;2433;48.768;9.154;2023-04-24T08:07:36;1.30;;;1.20;;
4837;SDS011;2433;48.768;9.154;2023-04-24T08:10:02;1.10;;;0.93;;
4837;SDS011;2433;48.768;9.154;2023-04-24T08:12:29;1.43;;;1.10;;
4837;SDS011;2433;48.768;9.154;2023-04-24T08:14:54;1.40;;;1.30;;
4837;SDS011;2433;48.768;9.154;2023-04-24T08:17:20;1.83;;;1.20;;
4837;SDS011;2433;48.768;9.154;2023-04-24T08:19:46;1.20;;;1.10;;
4837;SDS011;2433;48.768;9.154;2023-04-24T08:22:16;3.50;;;1.27;;
4837;SDS011;2433;48.768;9.154;2023-04-24T08:24:42;2.13;;;1.10;;
4837;SDS011;2433;48.768;9.154;2023-04-24T08:27:09;1.17;;;1.07;;
4837;SDS011;2433;48.768;9.154;2023-04-24T08:29:36;1.10;;;0.73;;
4837;SDS011;2433;48.768;9.154;2023-04-24T08:32:02;1.30;;;0.90;;
4837;SDS011;2433;48.768;9.154;2023-04-24T08:34:27;1.20;;;1.10;;
4837;SDS011;2433;48.768;9.154;2023-04-24T08:36:53;1.20;;;0.73;;
4837;SDS011;2433;48.768;9.154;2023-04-24T08:39:19;1.33;;;1.07;;
4837;SDS011;2433;48.768;9.154;2023-04-24T08:41:45;3.30;;;0.97;;
4837;SDS011;2433;48.768;9.154;2023-04-24T08:44:11;2.60;;;1.03;;
4837;SDS011;2433;48.768;9.154;2023-04-24T08:46:42;1.30;;;1.20;;
4837;SDS011;2433;48.768;9.154;2023-04-24T08:49:11;6.73;;;1.33;;
4837;SDS011;2433;48.768;9.154;2023-04-24T08:51:37;2.20;;;1.53;;
4837;SDS011;2433;48.768;9.154;2023-04-24T08:54:04;1.50;;;1.20;;
4837;SDS011;2433;48.768;9.154;2023-04-24T08:56:30;2.10;;;1.30;;
4837;SDS011;2433;48.768;9.154;2023-04-24T08:58:58;2.50;;;1.40;;
4837;SDS011;2433;48.768;9.154;2023-04-24T09:01:24;2.00;;;1.13;;
4837;SDS011;2433;48.768;9.154;2023-04-24T09:03:50;1.57;;;1.20;;
4837;SDS011;2433;48.768;9.154;2023-04-24T09:06:17;0.80;;;0.80;;
4837;SDS011;2433;48.768;9.154;2023-04-24T09:08:43;1.53;;;1.37;;
4837;SDS011;2433;48.768;9.154;2023-04-24T09:11:09;1.87;;;1.20;;
4837;SDS011;2433;48.768;9.154;2023-04-24T09:13:35;1.40;;;1.30;;
4837;SDS011;2433;48.768;9.154;2023-04-24T09:16:00;4.50;;;1.10;;
4837;SDS011;2433;48.768;9.154;2023-04-24T09:18:26;2.90;;;1.40;;
4837;SDS011;2433;48.768;9.154;2023-04-24T09:21:02;2.40;;;1.67;;
4837;SDS011;2433;48.768;9.154;2023-04-24T09:23:29;1.63;;;0.80;;
4837;SDS011;2433;48.768;9.154;2023-04-24T09:25:56;1.07;;;0.70;;
4837;SDS011;2433;48.768;9.154;2023-04-24T09:28:26;1.73;;;1.27;;
4837;SDS011;2433;48.768;9.154;2023-04-24T09:31:06;2.57;;;1.43;;
4837;SDS011;2433;48.768;9.154;2023-04-24T09:33:33;1.27;;;1.17;;
4837;SDS011;2433;48.768;9.154;2023-04-24T09:36:00;1.17;;;1.07;;
4837;SDS011;2433;48.768;9.154;2023-04-24T09:38:35;1.37;;;1.27;;
4837;SDS011;2433;48.768;9.154;2023-04-24T09:41:13;1.27;;;1.17;;
4837;SDS011;2433;48.768;9.154;2023-04-24T09:43:38;2.17;;;1.03;;
4837;SDS011;2433;48.768;9.154;2023-04-24T09:46:06;1.97;;;1.33;;
4837;SDS011;2433;48.768;9.154;2023-04-24T09:48:35;2.17;;;1.40;;
4837;SDS011;2433;48.768;9.154;2023-04-24T09:51:03;1.17;;;1.00;;
4837;SDS011;2433;48.768;9.154;2023-04-24T09:53:30;1.23;;;1.10;;
4837;SDS011;2433;48.768;9.154;2023-04-24T09:55:59;2.20;;;1.10;;
4837;SDS011;2433;48.768;9.154;2023-04-24T09:58:28;1.50;;;1.07;;
4837;SDS011;2433;48.768;9.154;2023-04-24T10:00:54;1.40;;;1.23;;
4837;SDS011;2433;48.768;9.154;2023-04-24T10:03:23;1.13;;;1.03;;
4837;SDS011;2433;48.768;9.154;2023-04-24T10:05:51;0.97;;;0.97;;
4837;SDS011;2433;48.768;9.154;2023-04-24T10:08:17;2.50;;;1.27;;
4837;SDS011;2433;48.768;9.154;2023-04-24T10:10:44;4.10;;;1.53;;
4837;SDS011;2433;48.768;9.154;2023-04-24T10:13:11;1.10;;;1.00;;
4837;SDS011;2433;48.768;9.154;2023-04-24T10:15:38;1.20;;;0.80;;
4837;SDS011;2433;48.768;9.154;2023-04-24T10:18:06;1.00;;;0.90;;
4837;SDS011;2433;48.768;9.154;2023-04-24T10:20:32;1.13;;;0.93;;
4837;SDS011;2433;48.768;9.154;2023-04-24T10:22:59;1.13;;;0.87;;
4837;SDS011;2433;48.768;9.154;2023-04-24T10:25:29;2.27;;;1.10;;
4837;SDS011;2433;48.768;9.154;2023-04-24T10:28:00;1.30;;;0.90;;
4837;SDS011;2433;48.768;9.154;2023-04-24T10:30:26;1.73;;;0.87;;
4837;SDS011;2433;48.768;9.154;2023-04-24T10:32:53;2.70;;;1.10;;
4837;SDS011;2433;48.768;9.154;2023-04-24T10:35:19;2.10;;;1.10;;
4837;SDS011;2433;48.768;9.154;2023-04-24T10:37:57;0.97;;;0.77;;
4837;SDS011;2433;48.768;9.154;2023-04-24T10:40:29;1.10;;;1.00;;
4837;SDS011;2433;48.768;9.154;2023-04-24T10:42:58;2.37;;;1.00;;
4837;SDS011;2433;48.768;9.154;2023-04-24T10:45:24;1.33;;;1.10;;
4837;SDS011;2433;48.768;9.154;2023-04-24T10:47:57;1.90;;;1.17;;
4837;SDS011;2433;48.768;9.154;2023-04-24T10:50:30;2.20;;;1.03;;
4837;SDS011;2433;48.768;9.154;2023-04-24T10:53:11;0.87;;;0.83;;
4837;SDS011;2433;48.768;9.154;2023-04-24T10:58:38;1.10;;;1.00;;
4837;SDS011;2433;48.768;9.154;2023-04-24T11:01:05;0.80;;;0.80;;
4837;SDS011;2433;48.768;9.154;2023-04-24T11:03:33;2.47;;;0.97;;
4837;SDS011;2433;48.768;9.154;2023-04-24T11:06:06;1.53;;;1.00;;
4837;SDS011;2433;48.768;9.154;2023-04-24T11:08:37;1.70;;;1.20;;
4837;SDS011;2433;48.768;9.154;2023-04-24T11:16:23;1.10;;;1.00;;
4837;SDS011;2433;48.768;9.154;2023-04-24T11:19:04;0.93;;;0.90;;
4837;SDS011;2433;48.768;9.154;2023-04-24T11:26:53;2.23;;;1.00;;
4837;SDS011;2433;48.768;9.154;2023-04-24T11:29:24;1.43;;;0.83;;
4837;SDS011;2433;48.768;9.154;2023-04-24T11:32:23;3.17;;;1.10;;
4837;SDS011;2433;48.768;9.154;2023-04-24T11:40:05;1.67;;;0.90;;
4837;SDS011;2433;48.768;9.154;2023-04-24T11:42:35;2.07;;;1.20;;
4837;SDS011;2433;48.768;9.154;2023-04-24T11:45:06;1.43;;;0.70;;
4837;SDS011;2433;48.768;9.154;2023-04-24T11:47:36;1.70;;;1.17;;
4837;SDS011;2433;48.768;9.154;2023-04-24T11:50:03;1.07;;;0.97;;
4837;SDS011;2433;48.768;9.154;2023-04-24T11:52:30;1.33;;;1.23;;
4837;SDS011;2433;48.768;9.154;2023-04-24T11:54:56;1.67;;;1.30;;
4837;SDS011;2433;48.768;9.154;2023-04-24T11:57:22;1.00;;;0.90;;
4837;SDS011;2433;48.768;9.154;2023-04-24T11:59:51;1.07;;;0.90;;
4837;SDS011;2433;48.768;9.154;2023-04-24T12:02:23;0.83;;;0.80;;
4837;SDS011;2433;48.768;9.154;2023-04-24T12:04:50;0.50;;;0.50;;
4837;SDS011;2433;48.768;9.154;2023-04-24T12:07:15;0.90;;;0.90;;
4837;SDS011;2433;48.768;9.154;2023-04-24T12:09:44;3.50;;;1.10;;
4837;SDS011;2433;48.768;9.154;2023-04-24T12:12:14;1.63;;;1.00;;
4837;SDS011;2433;48.768;9.154;2023-04-24T12:14:49;0.80;;;0.80;;
4837;SDS011;2433;48.768;9.154;2023-04-24T12:17:17;1.30;;;1.20;;
4837;SDS011;2433;48.768;9.154;2023-04-24T12:19:46;1.00;;;0.90;;
4837;SDS011;2433;48.768;9.154;2023-04-24T12:22:13;1.30;;;1.20;;
4837;SDS011;2433;48.768;9.154;2023-04-24T12:27:44;1.53;;;1.30;;
4837;SDS011;2433;48.768;9.154;2023-04-24T12:30:12;1.00;;;0.80;;
4837;SDS011;2433;48.768;9.154;2023-04-24T12:32:46;1.30;;;1.20;;
4837;SDS011;2433;48.768;9.154;2023-04-24T12:35:14;1.90;;;0.93;;
4837;SDS011;2433;48.768;9.154;2023-04-24T12:37:45;1.33;;;1.20;;
4837;SDS011;2433;48.768;9.154;2023-04-24T12:40:11;2.67;;;1.10;;
4837;SDS011;2433;48.768;9.154;2023-04-24T12:42:44;2.03;;;1.10;;
4837;SDS011;2433;48.768;9.154;2023-04-24T12:45:11;1.67;;;1.20;;
4837;SDS011;2433;48.768;9.154;2023-04-24T12:47:37;1.20;;;1.10;;
4837;SDS011;2433;48.768;9.154;2023-04-24T12:50:03;0.83;;;0.80;;
4837;SDS011;2433;48.768;9.154;2023-04-24T12:52:30;0.83;;;0.83;;
4837;SDS011;2433;48.768;9.154;2023-04-24T12:54:57;1.13;;;1.03;;
4837;SDS011;2433;48.768;9.154;2023-04-24T12:57:24;2.30;;;1.30;;
4837;SDS011;2433;48.768;9.154;2023-04-24T12:59:53;1.43;;;1.00;;
4837;SDS011;2433;48.768;9.154;2023-04-24T13:02:22;0.80;;;0.70;;
4837;SDS011;2433;48.768;9.154;2023-04-24T13:04:49;1.30;;;1.10;;
4837;SDS011;2433;48.768;9.154;2023-04-24T13:07:15;1.40;;;1.27;;
4837;SDS011;2433;48.768;9.154;2023-04-24T13:09:41;1.00;;;0.60;;
4837;SDS011;2433;48.768;9.154;2023-04-24T13:12:08;0.80;;;0.80;;
4837;SDS011;2433;48.768;9.154;2023-04-24T13:14:35;1.47;;;0.73;;
4837;SDS011;2433;48.768;9.154;2023-04-24T13:17:01;1.27;;;0.93;;
4837;SDS011;2433;48.768;9.154;2023-04-24T13:19:28;1.40;;;0.70;;
4837;SDS011;2433;48.768;9.154;2023-04-24T13:21:55;0.83;;;0.80;;
4837;SDS011;2433;48.768;9.154;2023-04-24T13:24:22;1.13;;;1.00;;
4837;SDS011;2433;48.768;9.154;2023-04-24T13:26:50;0.87;;;0.87;;
4837;SDS011;2433;48.768;9.154;2023-04-24T13:29:16;1.43;;;0.90;;
4837;SDS011;2433;48.768;9.154;2023-04-24T13:31:42;2.07;;;1.10;;
4837;SDS011;2433;48.768;9.154;2023-04-24T13:34:07;1.70;;;1.07;;
4837;SDS011;2433;48.768;9.154;2023-04-24T13:36:33;1.63;;;1.17;;
4837;SDS011;2433;48.768;9.154;2023-04-24T13:38:58;2.03;;;1.20;;
4837;SDS011;2433;48.768;9.154;2023-04-24T13:41:24;1.10;;;0.97;;
4837;SDS011;2433;48.768;9.154;2023-04-24T13:43:49;3.03;;;1.37;;
4837;SDS011;2433;48.768;9.154;2023-04-24T13:46:15;1.57;;;1.20;;
4837;SDS011;2433;48.768;9.154;2023-04-24T13:48:41;1.10;;;0.97;;
4837;SDS011;2433;48.768;9.154;2023-04-24T13:51:07;0.67;;;0.67;;
4837;SDS011;2433;48.768;9.154;2023-04-24T13:53:32;1.07;;;0.97;;
4837;SDS011;2433;48.768;9.154;2023-04-24T13:56:01;0.93;;;0.83;;
4837;SDS011;2433;48.768;9.154;2023-04-24T13:58:27;2.50;;;1.50;;
4837;SDS011;2433;48.768;9.154;2023-04-24T14:00:53;1.17;;;0.90;;
4837;SDS011;2433;48.768;9.154;2023-04-24T14:03:18;2.47;;;1.50;;
4837;SDS011;2433;48.768;9.154;2023-04-24T14:05:44;1.60;;;0.73;;
4837;SDS011;2433;48.768;9.154;2023-04-24T14:08:09;2.20;;;1.13;;
4837;SDS011;2433;48.768;9.154;2023-04-24T14:10:35;1.97;;;1.33;;
4837;SDS011;2433;48.768;9.154;2023-04-24T14:13:00;1.20;;;1.10;;
4837;SDS011;2433;48.768;9.154;2023-04-24T14:15:26;1.17;;;1.07;;
4837;SDS011;2433;48.768;9.154;2023-04-24T14:17:52;1.77;;;1.33;;
4837;SDS011;2433;48.768;9.154;2023-04-24T14:20:17;2.30;;;1.10;;
4837;SDS011;2433;48.768;9.154;2023-04-24T14:22:43;1.10;;;1.00;;
4837;SDS011;2433;48.768;9.154;2023-04-24T14:25:09;1.53;;;1.10;;
4837;SDS011;2433;48.768;9.154;2023-04-24T14:27:34;0.80;;;0.80;;
4837;SDS011;2433;48.768;9.154;2023-04-24T14:30:00;3.33;;;1.00;;
4837;SDS011;2433;48.768;9.154;2023-04-24T14:32:26;1.47;;;1.27;;
4837;SDS011;2433;48.768;9.154;2023-04-24T14:34:52;0.83;;;0.83;;
4837;SDS011;2433;48.768;9.154;2023-04-24T14:37:17;0.90;;;0.70;;
4837;SDS011;2433;48.768;9.154;2023-04-24T14:39:43;0.60;;;0.60;;
4837;SDS011;2433;48.768;9.154;2023-04-24T14:42:08;2.07;;;1.03;;
4837;SDS011;2433;48.768;9.154;2023-04-24T14:44:34;1.67;;;1.03;;
4837;SDS011;2433;48.768;9.154;2023-04-24T14:47:00;0.83;;;0.80;;
4837;SDS011;2433;48.768;9.154;2023-04-24T14:49:25;1.10;;;1.00;;
4837;SDS011;2433;48.768;9.154;2023-04-24T14:51:51;2.03;;;1.60;;
4837;SDS011;2433;48.768;9.154;2023-04-24T14:54:17;1.60;;;1.50;;
4837;SDS011;2433;48.768;9.154;2023-04-24T14:56:42;3.33;;;1.77;;
4837;SDS011;2433;48.768;9.154;2023-04-24T14:59:09;1.40;;;1.10;;
4837;SDS011;2433;48.768;9.154;2023-04-24T15:01:35;1.70;;;1.57;;
4837;SDS011;2433;48.768;9.154;2023-04-24T15:04:01;1.97;;;1.47;;
4837;SDS011;2433;48.768;9.154;2023-04-24T15:06:27;1.40;;;1.30;;
4837;SDS011;2433;48.768;9.154;2023-04-24T15:08:53;2.00;;;1.67;;
4837;SDS011;2433;48.768;9.154;2023-04-24T15:11:19;2.70;;;1.63;;
4837;SDS011;2433;48.768;9.154;2023-04-24T15:13:45;1.50;;;1.40;;
4837;SDS011;2433;48.768;9.154;2023-04-24T15:16:11;2.70;;;1.57;;
4837;SDS011;2433;48.768;9.154;2023-04-24T15:18:36;3.97;;;1.60;;
4837;SDS011;2433;48.768;9.154;2023-04-24T15:21:02;2.00;;;1.80;;
4837;SDS011;2433;48.768;9.154;2023-04-24T15:23:27;3.50;;;1.60;;
4837;SDS011;2433;48.768;9.154;2023-04-24T15:25:53;2.63;;;1.87;;
4837;SDS011;2433;48.768;9.154;2023-04-24T15:28:20;1.53;;;1.30;;
4837;SDS011;2433;48.768;9.154;2023-04-24T15:30:47;3.60;;;1.77;;
4837;SDS011;2433;48.768;9.154;2023-04-24T15:33:13;1.53;;;1.43;;
4837;SDS011;2433;48.768;9.154;2023-04-24T15:35:38;1.70;;;1.60;;